sensor_id;sensor_type;location;lat;lon;timestamp;temperature;humidity
15095;DHT22;7648;52.264;9.632;2024-03-02T00:02:24;7.80;99.90
15095;DHT22;7648;52.264;9.632;2024-03-02T00:06:26;7.80;99.90
15095;DHT22;7648;52.264;9.632;2024-03-02T00:10:35;7.80;99.90
15095;DHT22;7648;52.264;9.632;2024-03-02T00:14:41;7.80;99.90
15095;DHT22;7648;52.264;9.632;2024-03-02T00:18:43;7.90;99.90
15095;DHT22;7648;52.264;9.632;2024-03-02T00:22:45;7.90;99.90
15095;DHT22;7648;52.264;9.632;2024-03-02T00:26:47;8.00;99.90
15095;DHT22;7648;52.264;9.632;2024-03-02T00:30:57;7.90;99.90
15095;DHT22;7648;52.264;9.632;2024-03-02T00:34:59;7.90;99.90
15095;DHT22;7648;52.264;9.632;2024-03-02T00:39:02;7.90;99.90
15095;DHT22;7648;52.264;9.632;2024-03-02T00:47:40;7.90;99.90
15095;DHT22;7648;52.264;9.632;2024-03-02T00:51:47;7.90;99.90
15095;DHT22;7648;52.264;9.632;2024-03-02T00:55:49;7.90;99.90
15095;DHT22;7648;52.264;9.632;2024-03-02T00:59:51;7.80;99.90
15095;DHT22;7648;52.264;9.632;2024-03-02T01:03:54;7.80;99.90
15095;DHT22;7648;52.264;9.632;2024-03-02T01:07:56;7.80;99.90
15095;DHT22;7648;52.264;9.632;2024-03-02T01:11:58;7.80;99.90
15095;DHT22;7648;52.264;9.632;2024-03-02T01:16:00;7.80;99.90
15095;DHT22;7648;52.264;9.632;2024-03-02T01:20:08;7.80;99.90
15095;DHT22;7648;52.264;9.632;2024-03-02T01:24:10;7.80;99.90
15095;DHT22;7648;52.264;9.632;2024-03-02T01:28:12;7.90;99.90
15095;DHT22;7648;52.264;9.632;2024-03-02T01:32:14;7.90;99.90
15095;DHT22;7648;52.264;9.632;2024-03-02T01:36:17;8.00;99.90
15095;DHT22;7648;52.264;9.632;2024-03-02T01:40:19;8.00;99.90
15095;DHT22;7648;52.264;9.632;2024-03-02T01:44:21;8.00;99.90
15095;DHT22;7648;52.264;9.632;2024-03-02T01:48:23;8.00;99.90
15095;DHT22;7648;52.264;9.632;2024-03-02T01:52:27;7.90;99.90
15095;DHT22;7648;52.264;9.632;2024-03-02T01:56:30;8.00;99.90
15095;DHT22;7648;52.264;9.632;2024-03-02T02:00:32;7.90;99.90
15095;DHT22;7648;52.264;9.632;2024-03-02T02:04:33;7.80;99.90
15095;DHT22;7648;52.264;9.632;2024-03-02T02:08:38;7.70;99.90
15095;DHT22;7648;52.264;9.632;2024-03-02T02:12:40;7.60;99.90
15095;DHT22;7648;52.264;9.632;2024-03-02T02:16:42;7.60;99.90
15095;DHT22;7648;52.264;9.632;2024-03-02T02:20:44;7.50;99.90
15095;DHT22;7648;52.264;9.632;2024-03-02T02:24:47;7.50;99.90
15095;DHT22;7648;52.264;9.632;2024-03-02T02:28:49;7.50;99.90
15095;DHT22;7648;52.264;9.632;2024-03-02T02:32:51;7.50;99.90
15095;DHT22;7648;52.264;9.632;2024-03-02T02:36:53;7.40;99.90
15095;DHT22;7648;52.264;9.632;2024-03-02T02:40:56;7.40;99.90
15095;DHT22;7648;52.264;9.632;2024-03-02T02:44:58;7.30;99.90
15095;DHT22;7648;52.264;9.632;2024-03-02T02:49:00;7.30;99.90
15095;DHT22;7648;52.264;9.632;2024-03-02T02:53:02;7.30;99.90
15095;DHT22;7648;52.264;9.632;2024-03-02T02:57:06;7.20;99.90
15095;DHT22;7648;52.264;9.632;2024-03-02T03:01:08;7.20;99.90
15095;DHT22;7648;52.264;9.632;2024-03-02T03:05:11;7.10;99.90
15095;DHT22;7648;52.264;9.632;2024-03-02T03:09:13;7.00;99.90
15095;DHT22;7648;52.264;9.632;2024-03-02T03:13:16;6.90;99.90
15095;DHT22;7648;52.264;9.632;2024-03-02T03:17:18;6.90;99.90
15095;DHT22;7648;52.264;9.632;2024-03-02T03:21:20;6.80;99.90
15095;DHT22;7648;52.264;9.632;2024-03-02T03:25:22;6.80;99.90
15095;DHT22;7648;52.264;9.632;2024-03-02T03:29:25;6.70;99.90
15095;DHT22;7648;52.264;9.632;2024-03-02T03:33:27;6.70;99.90
15095;DHT22;7648;52.264;9.632;2024-03-02T03:37:29;6.70;99.90
15095;DHT22;7648;52.264;9.632;2024-03-02T03:41:33;6.60;99.90
15095;DHT22;7648;52.264;9.632;2024-03-02T03:45:36;6.70;99.90
15095;DHT22;7648;52.264;9.632;2024-03-02T03:49:38;6.60;99.90
15095;DHT22;7648;52.264;9.632;2024-03-02T03:53:40;6.60;99.90
15095;DHT22;7648;52.264;9.632;2024-03-02T03:57:42;6.60;99.90
15095;DHT22;7648;52.264;9.632;2024-03-02T04:01:46;6.60;99.90
15095;DHT22;7648;52.264;9.632;2024-03-02T04:05:48;6.60;99.90
15095;DHT22;7648;52.264;9.632;2024-03-02T04:09:49;6.60;99.90
15095;DHT22;7648;52.264;9.632;2024-03-02T04:13:51;6.60;99.90
15095;DHT22;7648;52.264;9.632;2024-03-02T04:17:55;6.60;99.90
15095;DHT22;7648;52.264;9.632;2024-03-02T04:21:57;6.50;99.90
15095;DHT22;7648;52.264;9.632;2024-03-02T04:25:58;6.60;99.90
15095;DHT22;7648;52.264;9.632;2024-03-02T04:30:00;6.60;99.90
15095;DHT22;7648;52.264;9.632;2024-03-02T04:34:04;6.50;99.90
15095;DHT22;7648;52.264;9.632;2024-03-02T04:38:06;6.50;99.90
15095;DHT22;7648;52.264;9.632;2024-03-02T04:42:08;6.40;99.90
15095;DHT22;7648;52.264;9.632;2024-03-02T04:46:09;6.30;99.90
15095;DHT22;7648;52.264;9.632;2024-03-02T04:50:13;6.20;99.90
15095;DHT22;7648;52.264;9.632;2024-03-02T04:54:15;6.20;99.90
15095;DHT22;7648;52.264;9.632;2024-03-02T04:58:17;6.10;99.90
15095;DHT22;7648;52.264;9.632;2024-03-02T05:02:19;6.10;99.90
15095;DHT22;7648;52.264;9.632;2024-03-02T05:06:22;6.10;99.90
15095;DHT22;7648;52.264;9.632;2024-03-02T05:10:24;6.00;99.90
15095;DHT22;7648;52.264;9.632;2024-03-02T05:14:26;6.00;99.90
15095;DHT22;7648;52.264;9.632;2024-03-02T05:18:28;6.00;99.90
15095;DHT22;7648;52.264;9.632;2024-03-02T05:22:32;6.00;99.90
15095;DHT22;7648;52.264;9.632;2024-03-02T05:26:34;6.00;99.90
15095;DHT22;7648;52.264;9.632;2024-03-02T05:30:36;6.10;99.90
15095;DHT22;7648;52.264;9.632;2024-03-02T05:34:38;6.10;99.90
15095;DHT22;7648;52.264;9.632;2024-03-02T05:38:41;6.10;99.90
15095;DHT22;7648;52.264;9.632;2024-03-02T05:42:43;6.00;99.90
15095;DHT22;7648;52.264;9.632;2024-03-02T05:46:45;6.00;99.90
15095;DHT22;7648;52.264;9.632;2024-03-02T05:50:47;6.00;99.90
15095;DHT22;7648;52.264;9.632;2024-03-02T05:54:51;6.00;99.90
15095;DHT22;7648;52.264;9.632;2024-03-02T05:58:53;6.10;99.90
15095;DHT22;7648;52.264;9.632;2024-03-02T06:03:07;6.10;99.90
15095;DHT22;7648;52.264;9.632;2024-03-02T06:07:10;6.20;99.90
15095;DHT22;7648;52.264;9.632;2024-03-02T06:11:13;6.10;99.90
15095;DHT22;7648;52.264;9.632;2024-03-02T06:15:15;6.20;99.90
15095;DHT22;7648;52.264;9.632;2024-03-02T06:19:17;6.10;99.90
15095;DHT22;7648;52.264;9.632;2024-03-02T06:23:19;6.10;99.90
15095;DHT22;7648;52.264;9.632;2024-03-02T06:31:24;6.10;99.90
15095;DHT22;7648;52.264;9.632;2024-03-02T06:35:26;6.10;99.90
15095;DHT22;7648;52.264;9.632;2024-03-02T06:39:28;6.10;99.90
15095;DHT22;7648;52.264;9.632;2024-03-02T06:43:31;6.20;99.90
15095;DHT22;7648;52.264;9.632;2024-03-02T06:47:33;6.30;99.90
15095;DHT22;7648;52.264;9.632;2024-03-02T06:51:35;6.40;99.90
15095;DHT22;7648;52.264;9.632;2024-03-02T06:55:37;6.60;99.90
15095;DHT22;7648;52.264;9.632;2024-03-02T06:59:40;6.70;99.90
15095;DHT22;7648;52.264;9.632;2024-03-02T07:03:42;6.80;99.90
15095;DHT22;7648;52.264;9.632;2024-03-02T07:07:44;6.90;99.90
15095;DHT22;7648;52.264;9.632;2024-03-02T07:11:46;6.90;99.90
15095;DHT22;7648;52.264;9.632;2024-03-02T07:15:49;7.00;99.90
15095;DHT22;7648;52.264;9.632;2024-03-02T07:20:16;7.00;99.90
15095;DHT22;7648;52.264;9.632;2024-03-02T07:24:18;7.10;99.90
15095;DHT22;7648;52.264;9.632;2024-03-02T07:28:20;7.10;99.90
15095;DHT22;7648;52.264;9.632;2024-03-02T07:32:23;7.10;99.90
15095;DHT22;7648;52.264;9.632;2024-03-02T07:36:25;7.20;99.90
15095;DHT22;7648;52.264;9.632;2024-03-02T07:40:27;7.30;99.90
15095;DHT22;7648;52.264;9.632;2024-03-02T07:44:29;7.40;99.90
15095;DHT22;7648;52.264;9.632;2024-03-02T07:48:32;7.50;99.90
15095;DHT22;7648;52.264;9.632;2024-03-02T07:52:34;7.60;99.90
15095;DHT22;7648;52.264;9.632;2024-03-02T07:56:36;7.80;99.90
15095;DHT22;7648;52.264;9.632;2024-03-02T08:00:39;7.90;99.90
15095;DHT22;7648;52.264;9.632;2024-03-02T08:04:42;8.10;99.90
15095;DHT22;7648;52.264;9.632;2024-03-02T08:08:44;8.30;99.90
15095;DHT22;7648;52.264;9.632;2024-03-02T08:12:46;8.40;99.90
15095;DHT22;7648;52.264;9.632;2024-03-02T08:16:48;8.60;99.90
15095;DHT22;7648;52.264;9.632;2024-03-02T08:20:51;8.70;99.90
15095;DHT22;7648;52.264;9.632;2024-03-02T08:24:53;8.80;99.90
15095;DHT22;7648;52.264;9.632;2024-03-02T08:28:56;9.00;99.90
15095;DHT22;7648;52.264;9.632;2024-03-02T08:32:57;9.10;99.90
15095;DHT22;7648;52.264;9.632;2024-03-02T08:37:01;9.20;99.90
15095;DHT22;7648;52.264;9.632;2024-03-02T08:41:03;9.30;99.90
15095;DHT22;7648;52.264;9.632;2024-03-02T08:45:07;9.50;99.90
15095;DHT22;7648;52.264;9.632;2024-03-02T08:49:10;9.60;99.90
15095;DHT22;7648;52.264;9.632;2024-03-02T08:53:14;9.70;99.90
15095;DHT22;7648;52.264;9.632;2024-03-02T08:57:18;9.80;99.90
15095;DHT22;7648;52.264;9.632;2024-03-02T09:01:20;9.90;99.90
15095;DHT22;7648;52.264;9.632;2024-03-02T09:05:22;9.90;99.90
15095;DHT22;7648;52.264;9.632;2024-03-02T09:09:26;9.90;99.90
15095;DHT22;7648;52.264;9.632;2024-03-02T09:13:29;10.00;99.90
15095;DHT22;7648;52.264;9.632;2024-03-02T09:17:34;10.00;99.90
15095;DHT22;7648;52.264;9.632;2024-03-02T09:21:36;10.10;99.90
15095;DHT22;7648;52.264;9.632;2024-03-02T09:25:40;10.10;99.90
15095;DHT22;7648;52.264;9.632;2024-03-02T09:29:43;10.10;99.90
15095;DHT22;7648;52.264;9.632;2024-03-02T09:33:46;10.20;99.90
15095;DHT22;7648;52.264;9.632;2024-03-02T09:37:48;10.20;99.90
15095;DHT22;7648;52.264;9.632;2024-03-02T09:41:51;10.20;99.90
15095;DHT22;7648;52.264;9.632;2024-03-02T09:45:53;10.30;99.90
15095;DHT22;7648;52.264;9.632;2024-03-02T09:49:55;10.50;99.90
15095;DHT22;7648;52.264;9.632;2024-03-02T09:53:57;10.50;99.90
15095;DHT22;7648;52.264;9.632;2024-03-02T09:58:04;10.70;99.90
15095;DHT22;7648;52.264;9.632;2024-03-02T10:02:06;10.70;99.90
15095;DHT22;7648;52.264;9.632;2024-03-02T10:06:21;10.90;99.90
15095;DHT22;7648;52.264;9.632;2024-03-02T10:10:24;11.00;99.90
15095;DHT22;7648;52.264;9.632;2024-03-02T10:14:29;11.30;99.90
15095;DHT22;7648;52.264;9.632;2024-03-02T10:18:32;11.40;99.90
15095;DHT22;7648;52.264;9.632;2024-03-02T10:22:34;11.50;99.90
15095;DHT22;7648;52.264;9.632;2024-03-02T10:26:36;11.60;99.90
15095;DHT22;7648;52.264;9.632;2024-03-02T10:30:39;11.80;99.90
15095;DHT22;7648;52.264;9.632;2024-03-02T10:34:42;11.80;99.90
15095;DHT22;7648;52.264;9.632;2024-03-02T10:38:44;11.80;99.90
15095;DHT22;7648;52.264;9.632;2024-03-02T10:42:48;11.80;99.90
15095;DHT22;7648;52.264;9.632;2024-03-02T10:46:52;12.00;99.90
15095;DHT22;7648;52.264;9.632;2024-03-02T10:50:55;12.20;99.90
15095;DHT22;7648;52.264;9.632;2024-03-02T10:55:00;12.40;99.90
15095;DHT22;7648;52.264;9.632;2024-03-02T10:59:03;12.50;99.90
15095;DHT22;7648;52.264;9.632;2024-03-02T11:03:07;12.60;99.90
15095;DHT22;7648;52.264;9.632;2024-03-02T11:07:10;12.70;99.90
15095;DHT22;7648;52.264;9.632;2024-03-02T11:11:15;12.70;99.90
15095;DHT22;7648;52.264;9.632;2024-03-02T11:15:21;12.60;99.90
15095;DHT22;7648;52.264;9.632;2024-03-02T11:19:28;12.60;99.90
15095;DHT22;7648;52.264;9.632;2024-03-02T11:23:34;12.60;99.90
15095;DHT22;7648;52.264;9.632;2024-03-02T11:28:01;12.70;99.90
15095;DHT22;7648;52.264;9.632;2024-03-02T11:32:05;12.70;99.90
15095;DHT22;7648;52.264;9.632;2024-03-02T11:36:09;12.70;99.90
15095;DHT22;7648;52.264;9.632;2024-03-02T11:40:11;12.80;99.90
15095;DHT22;7648;52.264;9.632;2024-03-02T11:44:15;13.00;99.90
15095;DHT22;7648;52.264;9.632;2024-03-02T11:48:20;13.00;99.90
15095;DHT22;7648;52.264;9.632;2024-03-02T11:52:23;13.00;99.90
15095;DHT22;7648;52.264;9.632;2024-03-02T11:56:28;13.00;99.90
15095;DHT22;7648;52.264;9.632;2024-03-02T12:00:32;13.00;99.90
15095;DHT22;7648;52.264;9.632;2024-03-02T12:04:34;13.10;99.90
15095;DHT22;7648;52.264;9.632;2024-03-02T12:08:38;13.10;99.90
15095;DHT22;7648;52.264;9.632;2024-03-02T12:12:40;13.10;99.90
15095;DHT22;7648;52.264;9.632;2024-03-02T12:16:44;13.10;99.90
15095;DHT22;7648;52.264;9.632;2024-03-02T12:20:46;13.30;99.90
15095;DHT22;7648;52.264;9.632;2024-03-02T12:24:51;13.40;99.90
15095;DHT22;7648;52.264;9.632;2024-03-02T12:28:54;13.60;99.90
15095;DHT22;7648;52.264;9.632;2024-03-02T12:32:56;13.70;99.90
15095;DHT22;7648;52.264;9.632;2024-03-02T12:36:58;13.70;99.90
15095;DHT22;7648;52.264;9.632;2024-03-02T12:41:01;13.70;99.90
15095;DHT22;7648;52.264;9.632;2024-03-02T12:45:04;13.60;99.90
15095;DHT22;7648;52.264;9.632;2024-03-02T12:49:08;13.60;99.90
15095;DHT22;7648;52.264;9.632;2024-03-02T12:53:14;13.60;99.90
15095;DHT22;7648;52.264;9.632;2024-03-02T12:57:18;13.50;99.90
15095;DHT22;7648;52.264;9.632;2024-03-02T13:01:20;13.40;99.90
15095;DHT22;7648;52.264;9.632;2024-03-02T13:05:22;13.40;99.90
15095;DHT22;7648;52.264;9.632;2024-03-02T13:09:26;13.40;99.90
15095;DHT22;7648;52.264;9.632;2024-03-02T13:13:32;13.30;99.90
15095;DHT22;7648;52.264;9.632;2024-03-02T13:17:35;13.30;99.90
15095;DHT22;7648;52.264;9.632;2024-03-02T13:21:37;13.40;99.90
15095;DHT22;7648;52.264;9.632;2024-03-02T13:25:39;13.40;99.90
15095;DHT22;7648;52.264;9.632;2024-03-02T13:29:42;13.40;99.90
15095;DHT22;7648;52.264;9.632;2024-03-02T13:33:44;13.40;99.90
15095;DHT22;7648;52.264;9.632;2024-03-02T13:37:47;13.40;99.90
15095;DHT22;7648;52.264;9.632;2024-03-02T13:41:50;13.40;99.90
15095;DHT22;7648;52.264;9.632;2024-03-02T13:45:59;13.40;99.90
15095;DHT22;7648;52.264;9.632;2024-03-02T13:50:01;13.40;99.90
15095;DHT22;7648;52.264;9.632;2024-03-02T13:54:05;13.40;99.90
15095;DHT22;7648;52.264;9.632;2024-03-02T13:58:07;13.40;99.90
15095;DHT22;7648;52.264;9.632;2024-03-02T14:02:11;13.50;99.90
15095;DHT22;7648;52.264;9.632;2024-03-02T14:06:13;13.50;99.90
15095;DHT22;7648;52.264;9.632;2024-03-02T14:10:16;13.60;99.90
15095;DHT22;7648;52.264;9.632;2024-03-02T14:14:18;13.60;99.90
15095;DHT22;7648;52.264;9.632;2024-03-02T14:18:22;13.60;99.90
15095;DHT22;7648;52.264;9.632;2024-03-02T14:22:23;13.50;99.90
15095;DHT22;7648;52.264;9.632;2024-03-02T14:26:25;13.40;99.90
15095;DHT22;7648;52.264;9.632;2024-03-02T14:30:28;13.40;99.90
15095;DHT22;7648;52.264;9.632;2024-03-02T14:34:32;13.50;99.90
15095;DHT22;7648;52.264;9.632;2024-03-02T14:38:34;13.50;99.90
15095;DHT22;7648;52.264;9.632;2024-03-02T14:42:36;13.60;99.90
15095;DHT22;7648;52.264;9.632;2024-03-02T14:46:38;13.60;99.90
15095;DHT22;7648;52.264;9.632;2024-03-02T14:50:42;13.60;99.90
15095;DHT22;7648;52.264;9.632;2024-03-02T14:54:44;13.70;99.90
15095;DHT22;7648;52.264;9.632;2024-03-02T14:58:47;13.60;99.90
15095;DHT22;7648;52.264;9.632;2024-03-02T15:02:49;13.70;99.90
15095;DHT22;7648;52.264;9.632;2024-03-02T15:06:52;13.70;99.90
15095;DHT22;7648;52.264;9.632;2024-03-02T15:10:54;13.70;99.90
15095;DHT22;7648;52.264;9.632;2024-03-02T15:14:58;13.80;99.90
15095;DHT22;7648;52.264;9.632;2024-03-02T15:19:00;13.80;99.90
15095;DHT22;7648;52.264;9.632;2024-03-02T15:23:03;13.80;99.90
15095;DHT22;7648;52.264;9.632;2024-03-02T15:27:05;13.70;99.90
15095;DHT22;7648;52.264;9.632;2024-03-02T15:31:08;13.80;99.90
15095;DHT22;7648;52.264;9.632;2024-03-02T15:35:10;13.80;99.90
15095;DHT22;7648;52.264;9.632;2024-03-02T15:39:14;13.80;99.90
15095;DHT22;7648;52.264;9.632;2024-03-02T15:43:16;13.70;99.90
15095;DHT22;7648;52.264;9.632;2024-03-02T15:47:18;13.70;99.90
15095;DHT22;7648;52.264;9.632;2024-03-02T15:51:19;13.70;99.90
15095;DHT22;7648;52.264;9.632;2024-03-02T15:55:23;13.50;99.90
15095;DHT22;7648;52.264;9.632;2024-03-02T15:59:25;13.40;99.90
15095;DHT22;7648;52.264;9.632;2024-03-02T16:03:27;13.20;99.90
15095;DHT22;7648;52.264;9.632;2024-03-02T16:07:29;13.10;99.90
15095;DHT22;7648;52.264;9.632;2024-03-02T16:11:32;13.10;99.90
15095;DHT22;7648;52.264;9.632;2024-03-02T16:15:36;12.90;99.90
15095;DHT22;7648;52.264;9.632;2024-03-02T16:19:38;12.90;99.90
15095;DHT22;7648;52.264;9.632;2024-03-02T16:23:41;12.80;99.90
15095;DHT22;7648;52.264;9.632;2024-03-02T16:27:44;12.70;99.90
15095;DHT22;7648;52.264;9.632;2024-03-02T16:31:47;12.50;99.90
15095;DHT22;7648;52.264;9.632;2024-03-02T16:35:49;12.40;99.90
15095;DHT22;7648;52.264;9.632;2024-03-02T16:39:51;12.30;99.90
15095;DHT22;7648;52.264;9.632;2024-03-02T16:43:54;12.20;99.90
15095;DHT22;7648;52.264;9.632;2024-03-02T16:47:56;12.10;99.90
15095;DHT22;7648;52.264;9.632;2024-03-02T16:51:58;11.90;99.90
15095;DHT22;7648;52.264;9.632;2024-03-02T16:56:00;11.80;99.90
15095;DHT22;7648;52.264;9.632;2024-03-02T17:00:06;11.60;99.90
15095;DHT22;7648;52.264;9.632;2024-03-02T17:04:08;11.50;99.90
15095;DHT22;7648;52.264;9.632;2024-03-02T17:08:10;11.40;99.90
15095;DHT22;7648;52.264;9.632;2024-03-02T17:12:12;11.30;99.90
15095;DHT22;7648;52.264;9.632;2024-03-02T17:16:15;11.20;99.90
15095;DHT22;7648;52.264;9.632;2024-03-02T17:20:18;11.00;99.90
15095;DHT22;7648;52.264;9.632;2024-03-02T17:24:20;10.90;99.90
15095;DHT22;7648;52.264;9.632;2024-03-02T17:28:22;10.90;99.90
15095;DHT22;7648;52.264;9.632;2024-03-02T17:32:26;10.80;99.90
15095;DHT22;7648;52.264;9.632;2024-03-02T17:36:28;10.80;99.90
15095;DHT22;7648;52.264;9.632;2024-03-02T17:40:30;10.80;99.90
15095;DHT22;7648;52.264;9.632;2024-03-02T17:44:32;10.70;99.90
15095;DHT22;7648;52.264;9.632;2024-03-02T17:48:36;10.70;99.90
15095;DHT22;7648;52.264;9.632;2024-03-02T17:52:37;10.70;99.90
15095;DHT22;7648;52.264;9.632;2024-03-02T17:56:39;10.70;99.90
15095;DHT22;7648;52.264;9.632;2024-03-02T18:00:41;10.70;99.90
15095;DHT22;7648;52.264;9.632;2024-03-02T18:04:45;10.60;99.90
15095;DHT22;7648;52.264;9.632;2024-03-02T18:08:47;10.50;99.90
15095;DHT22;7648;52.264;9.632;2024-03-02T18:12:50;10.40;99.90
15095;DHT22;7648;52.264;9.632;2024-03-02T18:16:51;10.30;99.90
15095;DHT22;7648;52.264;9.632;2024-03-02T18:20:55;10.30;99.90
15095;DHT22;7648;52.264;9.632;2024-03-02T18:24:57;10.20;99.90
15095;DHT22;7648;52.264;9.632;2024-03-02T18:28:59;10.10;99.90
15095;DHT22;7648;52.264;9.632;2024-03-02T18:33:02;10.10;99.90
15095;DHT22;7648;52.264;9.632;2024-03-02T18:37:05;10.00;99.90
15095;DHT22;7648;52.264;9.632;2024-03-02T18:41:07;10.00;99.90
15095;DHT22;7648;52.264;9.632;2024-03-02T18:45:09;10.00;99.90
15095;DHT22;7648;52.264;9.632;2024-03-02T18:49:11;10.00;99.90
15095;DHT22;7648;52.264;9.632;2024-03-02T18:53:14;9.90;99.90
15095;DHT22;7648;52.264;9.632;2024-03-02T18:57:16;9.90;99.90
15095;DHT22;7648;52.264;9.632;2024-03-02T19:01:18;9.80;99.90
15095;DHT22;7648;52.264;9.632;2024-03-02T19:05:20;9.60;99.90
15095;DHT22;7648;52.264;9.632;2024-03-02T19:09:24;9.60;99.90
15095;DHT22;7648;52.264;9.632;2024-03-02T19:13:26;9.50;99.90
15095;DHT22;7648;52.264;9.632;2024-03-02T19:17:28;9.50;99.90
15095;DHT22;7648;52.264;9.632;2024-03-02T19:21:30;9.40;99.90
15095;DHT22;7648;52.264;9.632;2024-03-02T19:25:34;9.30;99.90
15095;DHT22;7648;52.264;9.632;2024-03-02T19:29:36;9.20;99.90
15095;DHT22;7648;52.264;9.632;2024-03-02T19:33:38;9.00;99.90
15095;DHT22;7648;52.264;9.632;2024-03-02T19:37:39;8.80;99.90
15095;DHT22;7648;52.264;9.632;2024-03-02T19:41:43;8.70;99.90
15095;DHT22;7648;52.264;9.632;2024-03-02T19:45:45;8.50;99.90
15095;DHT22;7648;52.264;9.632;2024-03-02T19:49:47;8.40;99.90
15095;DHT22;7648;52.264;9.632;2024-03-02T19:53:48;8.20;99.90
15095;DHT22;7648;52.264;9.632;2024-03-02T19:57:52;8.10;99.90
15095;DHT22;7648;52.264;9.632;2024-03-02T20:01:54;8.00;99.90
15095;DHT22;7648;52.264;9.632;2024-03-02T20:05:56;8.00;99.90
15095;DHT22;7648;52.264;9.632;2024-03-02T20:09:58;8.00;99.90
15095;DHT22;7648;52.264;9.632;2024-03-02T20:14:01;8.00;99.90
15095;DHT22;7648;52.264;9.632;2024-03-02T20:18:03;8.00;99.90
15095;DHT22;7648;52.264;9.632;2024-03-02T20:22:05;8.00;99.90
15095;DHT22;7648;52.264;9.632;2024-03-02T20:26:07;8.00;99.90
15095;DHT22;7648;52.264;9.632;2024-03-02T20:30:12;8.00;99.90
15095;DHT22;7648;52.264;9.632;2024-03-02T20:34:14;7.90;99.90
15095;DHT22;7648;52.264;9.632;2024-03-02T20:38:18;7.70;99.90
15095;DHT22;7648;52.264;9.632;2024-03-02T20:42:20;7.60;99.90
15095;DHT22;7648;52.264;9.632;2024-03-02T20:46:23;7.50;99.90
15095;DHT22;7648;52.264;9.632;2024-03-02T20:50:25;7.50;99.90
15095;DHT22;7648;52.264;9.632;2024-03-02T20:54:27;7.40;99.90
15095;DHT22;7648;52.264;9.632;2024-03-02T20:58:29;7.30;99.90
15095;DHT22;7648;52.264;9.632;2024-03-02T21:02:32;7.20;99.90
15095;DHT22;7648;52.264;9.632;2024-03-02T21:06:35;7.20;99.90
15095;DHT22;7648;52.264;9.632;2024-03-02T21:10:37;7.10;99.90
15095;DHT22;7648;52.264;9.632;2024-03-02T21:14:39;7.00;99.90
15095;DHT22;7648;52.264;9.632;2024-03-02T21:18:42;6.90;99.90
15095;DHT22;7648;52.264;9.632;2024-03-02T21:22:44;6.80;99.90
15095;DHT22;7648;52.264;9.632;2024-03-02T21:26:51;6.70;99.90
15095;DHT22;7648;52.264;9.632;2024-03-02T21:30:53;6.70;99.90
15095;DHT22;7648;52.264;9.632;2024-03-02T21:34:56;6.70;99.90
15095;DHT22;7648;52.264;9.632;2024-03-02T21:38:58;6.60;99.90
15095;DHT22;7648;52.264;9.632;2024-03-02T21:43:00;6.50;99.90
15095;DHT22;7648;52.264;9.632;2024-03-02T21:47:03;6.50;99.90
15095;DHT22;7648;52.264;9.632;2024-03-02T21:51:06;6.50;99.90
15095;DHT22;7648;52.264;9.632;2024-03-02T21:55:09;6.50;99.90
15095;DHT22;7648;52.264;9.632;2024-03-02T21:59:11;6.50;99.90
15095;DHT22;7648;52.264;9.632;2024-03-02T22:03:13;6.50;99.90
15095;DHT22;7648;52.264;9.632;2024-03-02T22:07:16;6.40;99.90
15095;DHT22;7648;52.264;9.632;2024-03-02T22:11:18;6.30;99.90
15095;DHT22;7648;52.264;9.632;2024-03-02T22:15:20;6.20;99.90
15095;DHT22;7648;52.264;9.632;2024-03-02T22:19:22;6.10;99.90
15095;DHT22;7648;52.264;9.632;2024-03-02T22:23:25;6.10;99.90
15095;DHT22;7648;52.264;9.632;2024-03-02T22:27:27;6.10;99.90
15095;DHT22;7648;52.264;9.632;2024-03-02T22:31:29;6.10;99.90
15095;DHT22;7648;52.264;9.632;2024-03-02T22:35:31;6.10;99.90
15095;DHT22;7648;52.264;9.632;2024-03-02T22:39:35;6.20;99.90
15095;DHT22;7648;52.264;9.632;2024-03-02T22:43:37;6.20;99.90
15095;DHT22;7648;52.264;9.632;2024-03-02T22:47:38;6.30;99.90
15095;DHT22;7648;52.264;9.632;2024-03-02T22:51:41;6.30;99.90
15095;DHT22;7648;52.264;9.632;2024-03-02T22:55:44;6.30;99.90
15095;DHT22;7648;52.264;9.632;2024-03-02T22:59:48;6.20;99.90
15095;DHT22;7648;52.264;9.632;2024-03-02T23:03:50;6.10;99.90
15095;DHT22;7648;52.264;9.632;2024-03-02T23:07:52;6.00;99.90
15095;DHT22;7648;52.264;9.632;2024-03-02T23:11:55;5.90;99.90
15095;DHT22;7648;52.264;9.632;2024-03-02T23:15:57;5.80;99.90
15095;DHT22;7648;52.264;9.632;2024-03-02T23:19:59;5.80;99.90
15095;DHT22;7648;52.264;9.632;2024-03-02T23:24:02;5.80;99.90
15095;DHT22;7648;52.264;9.632;2024-03-02T23:28:05;5.90;99.90
15095;DHT22;7648;52.264;9.632;2024-03-02T23:32:07;5.80;99.90
15095;DHT22;7648;52.264;9.632;2024-03-02T23:36:09;5.80;99.90
15095;DHT22;7648;52.264;9.632;2024-03-02T23:40:12;5.70;99.90
15095;DHT22;7648;52.264;9.632;2024-03-02T23:44:37;5.60;99.90
15095;DHT22;7648;52.264;9.632;2024-03-02T23:48:39;5.50;99.90
15095;DHT22;7648;52.264;9.632;2024-03-02T23:52:41;5.40;99.90
15095;DHT22;7648;52.264;9.632;2024-03-02T23:56:44;5.20;99.90
